• Join FlightAware (Why Join?)
  • Login
  • US Flag 
04:40AM EDT


 

Airport Tracker/Info


-or-


 

Live Flight TrackerFlight Track Log ✈ CTA400 ✈ 07-Jun-2013 ✈ KAMA - KLBB

Flight Track Log - Related Links

Times and Time Zones

All times are in EDT time to prevent confusion due to time zone crossing. See the CTA400 flight status page for this flight to view local times or setup timezone preferences in your user account.

Time Position Orientation Groundspeed Altitude Reporting Facility
EDT Latitude Longitude Course Direction KTS MPH feet Rate Location/Type
06:14PM 35.1747 -101.7367 192° South 97 112 5,700  Level Albuquerque Center
06:15PM 35.1478 -101.7436 192° South 98 113 6,700 960 Climbing Albuquerque Center
06:17PM 35.1178 -101.7489 188° South 103 119 7,700 840 Climbing Albuquerque Center
06:18PM 35.0858 -101.7550 189° South 110 127 8,500 780 Climbing Albuquerque Center
06:19PM 35.0508 -101.7614 188° South 120 138 9,300 480 Climbing Albuquerque Center
06:20PM 35.0028 -101.7625 181° South 140 161 9,500 120 Climbing Albuquerque Center
06:21PM 34.9564 -101.7606 178° South 160 184 9,600  Climbing Albuquerque Center
06:22PM 34.9083 -101.7542 174° South 172 198 9,600  Level Albuquerque Center
06:23PM 34.8586 -101.7592 185° South 176 203 9,600  Level Albuquerque Center
06:24PM 34.8089 -101.7558 177° South 179 206 9,600  Level Albuquerque Center
06:25PM 34.7592 -101.7517 176° South 180 207 9,600  Level Albuquerque Center
06:26PM 34.7083 -101.7478 176° South 182 209 9,600  Level Albuquerque Center
06:27PM 34.6581 -101.7472 179° South 181 208 9,600  Level Albuquerque Center
06:28PM 34.5992 -101.7558 187° South 179 206 9,600 -60 Level Albuquerque Center
06:29PM 34.5492 -101.7547 179° South 179 206 9,500 -60 Descending Albuquerque Center
06:30PM 34.4978 -101.7517 177° South 181 208 9,500 -60 Level Albuquerque Center
06:31PM 34.4478 -101.7503 179° South 181 208 9,400  Descending Albuquerque Center
06:32PM 34.3967 -101.7533 183° South 182 209 9,600 120 Climbing Albuquerque Center
06:32PM 34.3733 -101.7586 191° South 182 209 9,600 60 Level Fort Worth Center
06:33PM 34.3522 -101.7628 189° South 181 208 9,700 60 Climbing Fort Worth Center
06:33PM 34.3228 -101.7661 185° South 178 205 9,700  Level Fort Worth Center
06:34PM 34.2975 -101.7725 192° South 181 208 9,700 -120 Level Fort Worth Center
06:34PM 34.2725 -101.7761 187° South 181 208 9,600 -120 Descending Fort Worth Center
06:35PM 34.2494 -101.7775 183° South 181 208 9,600  Level Fort Worth Center
06:35PM 34.2222 -101.7836 191° South 186 214 9,600  Level Fort Worth Center
06:36PM 34.1969 -101.7875 187° South 181 208 9,600 -120 Level Fort Worth Center
06:36PM 34.1614 -101.7933 188° South 184 212 9,500 -120 Descending Fort Worth Center
06:37PM 34.1486 -101.7950 186° South 186 214 9,500 -420 Level Fort Worth Center
06:37PM 34.1089 -101.8031 190° South 184 212 9,100 -420 Descending Fort Worth Center
06:38PM 34.0919 -101.8047 185° South 186 214 9,100 -420 Level Fort Worth Center
06:38PM 34.0583 -101.8131 192° South 182 209 8,700 -420 Descending Fort Worth Center
06:39PM 34.0500 -101.8103 165° South 181 208 8,700 -420 Level Fort Worth Center
06:39PM 34.0100 -101.8206 192° South 176 203 8,300 -600 Descending Fort Worth Center
06:40PM 33.9975 -101.8200 178° South 181 208 8,100 -600 Descending Fort Worth Center
06:40PM 33.9639 -101.8258 188° South 171 197 7,700 -540 Descending Fort Worth Center
06:41PM 33.9556 -101.8253 177° South 181 208 7,600 -660 Descending Fort Worth Center
06:41PM 33.9200 -101.8311 188° South 166 191 7,100 -600 Descending Fort Worth Center
06:42PM 33.9056 -101.8303 177° South 176 203 7,000 -600 Descending Fort Worth Center
06:42PM 33.8739 -101.8339 185° South 167 192 6,500 -540 Descending Fort Worth Center
06:43PM 33.8617 -101.8306 167° South 176 203 6,500 -540 Level Fort Worth Center
06:43PM 33.8281 -101.8314 181° South 166 191 6,000 -720 Descending Fort Worth Center
06:44PM 33.8114 -101.8306 178° South 171 197 5,800 -600 Descending Fort Worth Center
06:44PM 33.7822 -101.8317 182° South 164 189 5,400 -780 Descending Fort Worth Center
06:45PM 33.7342 -101.8342 182° South 155 178 4,600 -780 Descending Fort Worth Center
06:46PM 33.7050 -101.8328 178° South 105 121 3,900 -720 Descending Fort Worth Center
06:48PM 33.6572 -101.8188 166° South  Level FlightAware Approximate
06:55PM 33.6500 -101.8167 187° South  Level FlightAware Approximate
06:56PM 33.6637 -101.8206 187° South  Level Estimated